Time;durP1;ratioP1;P1;durP2;ratioP2;P2;SDS_P1;SDS_P2;PMS_P1;PMS_P2;Temp;Humidity;BMP_temperature;BMP_pressure;BME280_temperature;BME280_humidity;BME280_pressure;Samples;Min_cycle;Max_cycle;Signal;HPM_P1;HPM_P2
2023/12/10 00:02:05;;;;;;;;;68.00;47.75;;;;;-143.90;100.00;76270.16;4932372;28;101524;-78
2023/12/10 00:04:32;;;;;;;;;62.50;48.25;;;;;-143.90;100.00;76272.22;4931421;28;102080;-78
2023/12/10 00:06:58;;;;;;;;;82.25;59.50;;;;;-143.90;100.00;76268.09;4931403;28;103297;-78
2023/12/10 00:09:26;;;;;;;;;86.75;63.75;;;;;-143.90;100.00;76268.09;4932380;28;102054;-78
2023/12/10 00:11:52;;;;;;;;;73.25;56.25;;;;;-143.90;100.00;76266.03;4930209;28;101532;-79
2023/12/10 00:14:19;;;;;;;;;66.00;50.00;;;;;-143.90;100.00;76263.97;4947902;28;102683;-78
2023/12/10 00:16:45;;;;;;;;;85.25;63.25;;;;;-143.90;100.00;76272.22;4931726;28;103353;-78
2023/12/10 00:19:12;;;;;;;;;79.75;59.25;;;;;-143.90;100.00;76278.44;4932536;28;102186;-78
2023/12/10 00:21:39;;;;;;;;;82.50;61.50;;;;;-143.90;100.00;76284.63;4933332;28;101903;-78
2023/12/10 00:24:06;;;;;;;;;110.25;77.50;;;;;-143.90;100.00;76297.03;4933633;28;101842;-78
2023/12/10 00:26:33;;;;;;;;;107.25;79.25;;;;;-143.90;100.00;76299.09;4930772;28;103415;-76
2023/12/10 00:28:59;;;;;;;;;93.50;64.00;;;;;-143.90;100.00;76305.31;4931610;28;102165;-76
2023/12/10 00:31:26;;;;;;;;;108.50;75.50;;;;;-143.90;100.00;76315.66;4933710;28;102220;-77
2023/12/10 00:33:53;;;;;;;;;120.75;92.50;;;;;-143.90;100.00;76326.00;4934021;28;101644;-77
2023/12/10 00:36:20;;;;;;;;;111.50;85.50;;;;;-143.90;100.00;76338.41;4934024;28;103318;-77
2023/12/10 00:38:46;;;;;;;;;100.75;71.75;;;;;-143.90;100.00;76340.47;4930186;28;102194;-76
2023/12/10 00:41:14;;;;;;;;;96.50;67.00;;;;;-143.90;100.00;76336.34;4933619;28;101584;-76
2023/12/10 00:43:41;;;;;;;;;84.75;66.25;;;;;-143.90;100.00;76334.25;4936440;28;101929;-75
2023/12/10 00:46:08;;;;;;;;;93.50;67.00;;;;;-143.90;100.00;76330.13;4936423;28;103509;-77
2023/12/10 00:48:37;;;;;;;;;115.00;91.50;;;;;-143.90;100.00;76328.06;4933281;28;102111;-76
2023/12/10 00:51:04;;;;;;;;;131.25;100.00;;;;;-143.90;100.00;76336.34;4931594;28;106315;-76
2023/12/10 00:53:31;;;;;;;;;121.75;99.25;;;;;-143.90;100.00;76334.25;4934662;28;102130;-77
2023/12/10 00:55:57;;;;;;;;;107.75;79.00;;;;;-143.90;100.00;76323.94;4932576;28;103379;-76
2023/12/10 00:58:24;;;;;;;;;99.75;72.50;;;;;-143.90;100.00;76323.94;4929958;28;102080;-77
2023/12/10 01:00:51;;;;;;;;;108.75;83.75;;;;;-143.90;100.00;76332.19;4930238;28;101653;-77
2023/12/10 01:03:18;;;;;;;;;107.50;78.50;;;;;-143.90;100.00;76334.25;4932756;28;102018;-77
2023/12/10 01:05:45;;;;;;;;;105.50;77.50;;;;;-143.90;100.00;76336.34;4928600;28;103111;-77
2023/12/10 01:08:12;;;;;;;;;90.00;67.00;;;;;-143.90;100.00;76330.13;4931528;28;101780;-77
2023/12/10 01:10:38;;;;;;;;;71.75;53.00;;;;;-143.90;100.00;76330.13;4933550;28;101710;-77
2023/12/10 01:13:05;;;;;;;;;100.75;74.75;;;;;-143.90;100.00;76334.25;4932894;28;102010;-76
2023/12/10 01:15:32;;;;;;;;;94.00;68.75;;;;;-143.90;100.00;76334.25;4931656;28;103511;-77
2023/12/10 01:18:02;;;;;;;;;85.25;60.25;;;;;-143.90;100.00;76338.41;4926916;28;101901;-77
2023/12/10 01:20:30;;;;;;;;;89.25;66.50;;;;;-143.90;100.00;76328.06;4931316;28;101635;-78
2023/12/10 01:22:58;;;;;;;;;100.00;72.00;;;;;-143.90;100.00;76317.72;4931418;28;101540;-77
2023/12/10 01:25:25;;;;;;;;;102.00;77.25;;;;;-143.90;100.00;76307.38;4929045;28;103706;-78
2023/12/10 01:27:53;;;;;;;;;142.00;111.75;;;;;-143.90;100.00;76311.53;4927455;28;102025;-78
2023/12/10 01:30:23;;;;;;;;;151.25;124.50;;;;;-143.90;100.00;76309.44;4930614;28;101848;-77
2023/12/10 01:32:57;;;;;;;;;137.00;100.00;;;;;-143.90;100.00;76301.19;4931488;28;101638;-77
2023/12/10 01:35:25;;;;;;;;;121.75;96.50;;;;;-143.90;100.00;76305.31;4920317;28;103350;-77
2023/12/10 01:37:52;;;;;;;;;121.75;89.75;;;;;-143.90;100.00;76303.25;4928455;28;102374;-77
2023/12/10 01:40:19;;;;;;;;;132.75;104.75;;;;;-143.90;100.00;76294.97;4929049;28;101983;-77
2023/12/10 01:42:47;;;;;;;;;110.75;80.75;;;;;-143.90;100.00;76288.78;4928731;28;101605;-76
2023/12/10 01:45:14;;;;;;;;;88.25;63.50;;;;;-143.90;100.00;76268.09;4927681;28;103257;-77
2023/12/10 01:47:42;;;;;;;;;99.00;70.75;;;;;-143.90;100.00;76263.97;4930255;28;103140;-76
2023/12/10 01:50:12;;;;;;;;;89.50;62.75;;;;;-143.90;100.00;76247.41;4930124;28;101895;-77
2023/12/10 01:52:43;;;;;;;;;108.50;77.50;;;;;-143.90;100.00;76239.13;4929073;28;101995;-77
2023/12/10 01:55:12;;;;;;;;;105.00;73.75;;;;;-143.90;100.00;76226.72;4926363;28;108567;-73
2023/12/10 01:57:41;;;;;;;;;104.75;75.75;;;;;-143.90;100.00;76228.81;4930488;28;101825;-78
2023/12/10 02:00:08;;;;;;;;;95.00;68.25;;;;;-143.90;100.00;76214.31;4928354;28;101969;-77
2023/12/10 02:02:36;;;;;;;;;98.00;73.50;;;;;-143.90;100.00;76206.06;4930811;28;102908;-78
2023/12/10 02:05:07;;;;;;;;;104.00;72.00;;;;;-143.90;100.00;76201.91;4929253;28;103317;-77
2023/12/10 02:07:35;;;;;;;;;89.75;65.75;;;;;-143.90;100.00;76193.66;4928406;28;101998;-77
2023/12/10 02:10:05;;;;;;;;;105.25;76.75;;;;;-143.90;100.00;76189.50;4927172;28;101855;-77
2023/12/10 02:12:35;;;;;;;;;96.50;73.75;;;;;-143.90;100.00;76187.44;4928274;28;101668;-77
2023/12/10 02:15:18;;;;;;;;;100.50;72.50;;;;;-143.90;100.00;76185.38;4929016;28;103131;-77
2023/12/10 02:17:47;;;;;;;;;97.50;69.25;;;;;-143.90;100.00;76168.81;4928726;28;101910;-77
2023/12/10 02:20:15;;;;;;;;;94.50;67.50;;;;;-143.90;100.00;76168.81;4927606;28;103085;-77
2023/12/10 02:22:53;;;;;;;;;94.00;70.00;;;;;-143.90;100.00;76164.69;4929331;28;101615;-76
2023/12/10 02:25:30;;;;;;;;;86.25;62.25;;;;;-143.90;100.00;76158.50;4926050;28;103678;-77
2023/12/10 02:27:58;;;;;;;;;76.00;57.75;;;;;-143.90;100.00;76156.41;4927109;28;102156;-77
2023/12/10 02:30:25;;;;;;;;;66.25;46.25;;;;;-143.90;100.00;76148.16;4927885;28;101896;-77
2023/12/10 02:32:52;;;;;;;;;84.50;60.25;;;;;-143.90;100.00;76148.16;4926538;28;101839;-77
2023/12/10 02:35:19;;;;;;;;;78.75;58.50;;;;;-143.90;100.00;76141.94;4930415;28;103990;-77
2023/12/10 02:37:45;;;;;;;;;71.25;54.75;;;;;-143.90;100.00;76141.94;4929104;28;101860;-78
2023/12/10 02:40:12;;;;;;;;;84.00;60.75;;;;;-143.90;100.00;76144.00;4928833;28;101534;-75
2023/12/10 02:42:39;;;;;;;;;71.50;51.00;;;;;-143.90;100.00;76135.75;4934128;28;101693;-78
2023/12/10 02:45:06;;;;;;;;;62.25;47.75;;;;;-143.90;100.00;76131.59;4928993;28;103516;-76
2023/12/10 02:47:33;;;;;;;;;73.50;52.75;;;;;-143.90;100.00;76125.41;4931447;28;102326;-77
2023/12/10 02:50:00;;;;;;;;;67.33;44.00;;;;;-143.90;100.00;76123.34;4928179;28;101919;-76
2023/12/10 02:52:26;;;;;;;;;41.67;33.67;;;;;-143.90;100.00;76115.06;4929436;28;105182;-76
2023/12/10 02:54:53;;;;;;;;;36.67;33.67;;;;;-143.90;100.00;76108.84;4928897;28;103349;-76
2023/12/10 02:57:20;;;;;;;;;27.00;22.00;;;;;-143.90;100.00;76104.72;4930878;28;101849;-76
2023/12/10 02:59:46;;;;;;;;;45.33;36.67;;;;;-143.90;100.00;76104.72;4929641;28;103293;-76
2023/12/10 03:02:13;;;;;;;;;40.00;31.67;;;;;-143.90;100.00;76102.66;4931526;28;102561;-76
2023/12/10 03:04:40;;;;;;;;;31.00;25.00;;;;;-143.90;100.00;76102.66;4931751;28;103417;-77
2023/12/10 03:07:06;;;;;;;;;31.00;20.67;;;;;-143.90;100.00;76100.59;4930441;28;101640;-76
2023/12/10 03:09:33;;;;;;;;;25.67;23.00;;;;;-143.90;100.00;76102.66;4930152;28;101761;-74
2023/12/10 03:11:59;;;;;;;;;40.67;34.00;;;;;-143.90;100.00;76106.78;4929440;28;101750;-75
2023/12/10 03:14:26;;;;;;;;;29.00;26.33;;;;;-143.90;100.00;76102.66;4929149;28;103402;-75
2023/12/10 03:16:52;;;;;;;;;30.33;22.33;;;;;-143.90;100.00;76115.06;4930850;28;102374;-75
2023/12/10 03:19:19;;;;;;;;;37.33;29.33;;;;;-143.90;100.00;76119.19;4929943;28;101839;-75
2023/12/10 03:21:46;;;;;;;;;37.67;32.67;;;;;-143.90;100.00;76123.34;4929810;28;101926;-76
2023/12/10 03:24:13;;;;;;;;;37.67;29.00;;;;;-143.90;100.00;76110.94;4929727;28;103252;-74
2023/12/10 03:26:39;;;;;;;;;27.33;23.00;;;;;-143.90;100.00;76115.06;4931220;28;102192;-76
2023/12/10 03:29:06;;;;;;;;;24.67;21.00;;;;;-143.90;100.00;76119.19;4927592;28;102180;-75
2023/12/10 03:31:32;;;;;;;;;23.00;18.67;;;;;-143.90;100.00;76127.47;4932978;28;103195;-77
2023/12/10 03:33:59;;;;;;;;;23.33;19.67;;;;;-143.90;100.00;76135.75;4929267;28;103361;-77
2023/12/10 03:36:26;;;;;;;;;11.00;7.00;;;;;-143.90;100.00;76131.59;4930916;28;101759;-76
2023/12/10 03:38:52;;;;;;;;;14.67;10.33;;;;;-143.90;100.00;76135.75;4927434;28;102834;-76
2023/12/10 03:41:19;;;;;;;;;19.00;16.00;;;;;-143.90;100.00;76144.00;4931613;28;102064;-76
2023/12/10 03:43:46;;;;;;;;;21.33;15.67;;;;;-143.90;100.00;76156.41;4927657;28;107190;-75
2023/12/10 03:46:12;;;;;;;;;22.33;17.00;;;;;-143.90;100.00;76156.41;4930107;28;101640;-75
2023/12/10 03:48:39;;;;;;;;;22.33;17.00;;;;;-143.90;100.00;76156.41;4932189;28;102094;-76
2023/12/10 03:51:06;;;;;;;;;23.00;18.67;;;;;-143.90;100.00;76156.41;4931325;28;101840;-76
2023/12/10 03:53:32;;;;;;;;;23.00;21.00;;;;;-143.90;100.00;76154.34;4930032;28;103294;-76
2023/12/10 03:55:59;;;;;;;;;20.67;16.67;;;;;-143.90;100.00;76150.22;4930282;28;102113;-75
2023/12/10 03:58:25;;;;;;;;;26.00;22.00;;;;;-143.90;100.00;76148.16;4930769;28;101496;-76
2023/12/10 04:00:52;;;;;;;;;30.67;23.67;;;;;-143.90;100.00;76156.41;4929863;28;101539;-76
2023/12/10 04:03:19;;;;;;;;;22.67;17.67;;;;;-143.90;100.00;76150.22;4927384;28;103403;-76
2023/12/10 04:05:45;;;;;;;;;18.33;13.67;;;;;-143.90;100.00;76144.00;4941828;28;101825;-76
2023/12/10 04:08:12;;;;;;;;;30.67;26.00;;;;;-143.90;100.00;76135.75;4927228;28;102678;-75
2023/12/10 04:10:39;;;;;;;;;35.33;29.00;;;;;-143.90;100.00;76139.88;4930428;28;101644;-75
2023/12/10 04:13:05;;;;;;;;;28.00;20.00;;;;;-143.90;100.00;76139.88;4925863;28;103482;-76
2023/12/10 04:15:32;;;;;;;;;41.00;34.67;;;;;-143.90;100.00;76154.34;4929370;28;102343;-76
2023/12/10 04:18:00;;;;;;;;;40.00;32.00;;;;;-143.90;100.00;76158.50;4925253;28;102241;-76
2023/12/10 04:20:26;;;;;;;;;42.67;37.33;;;;;-143.90;100.00;76144.00;4928313;28;101902;-76
2023/12/10 04:22:53;;;;;;;;;39.67;34.33;;;;;-143.90;100.00;76150.22;4927888;28;103333;-76
2023/12/10 04:25:24;;;;;;;;;36.33;34.00;;;;;-143.90;100.00;76156.41;4929756;28;102262;-76
2023/12/10 04:27:51;;;;;;;;;41.67;29.00;;;;;-143.90;100.00;76154.34;4929117;28;101827;-76
2023/12/10 04:30:19;;;;;;;;;27.67;24.00;;;;;-143.90;100.00;76152.28;4929387;28;102179;-77
2023/12/10 04:32:46;;;;;;;;;21.33;19.67;;;;;-143.90;100.00;76148.16;4925528;28;103374;-76
2023/12/10 04:35:13;;;;;;;;;30.00;20.67;;;;;-143.90;100.00;76148.16;4927853;28;102264;-74
2023/12/10 04:37:40;;;;;;;;;10.67;4.67;;;;;-143.90;100.00;76154.34;4933869;28;102927;-76
2023/12/10 04:40:07;;;;;;;;;32.33;25.33;;;;;-143.90;100.00;76164.69;4932742;28;101673;-76
2023/12/10 04:42:34;;;;;;;;;22.00;19.00;;;;;-143.90;100.00;76156.41;4929567;28;103553;-76
2023/12/10 04:45:01;;;;;;;;;28.33;20.00;;;;;-143.90;100.00;76164.69;4930596;28;101760;-77
2023/12/10 04:47:27;;;;;;;;;23.00;18.00;;;;;-143.90;100.00;76152.28;4931207;28;101724;-76
2023/12/10 04:49:54;;;;;;;;;17.00;13.00;;;;;-143.90;100.00;76154.34;4933861;28;101861;-76
2023/12/10 04:52:21;;;;;;;;;21.00;14.67;;;;;-143.90;100.00;76160.56;4928788;28;103433;-76
2023/12/10 04:54:48;;;;;;;;;22.00;13.00;;;;;-143.90;100.00;76164.69;4948203;28;101833;-76
2023/12/10 04:57:15;;;;;;;;;36.00;30.00;;;;;-143.90;100.00;76177.09;4931811;28;101802;-75
2023/12/10 04:59:41;;;;;;;;;19.67;17.33;;;;;-143.90;100.00;76177.09;4933684;28;101783;-75
2023/12/10 05:02:08;;;;;;;;;26.00;20.67;;;;;-143.90;100.00;76187.44;4932209;28;108030;-76
2023/12/10 05:04:34;;;;;;;;;18.33;11.67;;;;;-143.90;100.00;76191.56;4932789;28;101935;-76
2023/12/10 05:07:01;;;;;;;;;29.33;26.00;;;;;-143.90;100.00;76197.78;4929462;28;101889;-76
2023/12/10 05:09:28;;;;;;;;;37.33;30.67;;;;;-143.90;100.00;76206.06;4933355;28;101843;-76
2023/12/10 05:11:54;;;;;;;;;34.33;25.67;;;;;-143.90;100.00;76201.91;4931201;28;103610;-76
2023/12/10 05:14:21;;;;;;;;;66.25;47.25;;;;;-143.90;100.00;76218.47;4928715;28;101612;-76
2023/12/10 05:16:47;;;;;;;;;67.75;51.50;;;;;-143.90;100.00;76216.41;4932772;28;101885;-76
2023/12/10 05:19:14;;;;;;;;;64.25;47.00;;;;;-143.90;100.00;76214.31;4932005;28;101611;-76
2023/12/10 05:21:40;;;;;;;;;55.25;46.50;;;;;-143.90;100.00;76210.19;4933759;28;103398;-75
2023/12/10 05:24:08;;;;;;;;;67.25;52.50;;;;;-143.90;100.00;76206.06;4929475;28;102270;-75
2023/12/10 05:26:35;;;;;;;;;64.00;48.50;;;;;-143.90;100.00;76210.19;4931582;28;101878;-76
2023/12/10 05:29:01;;;;;;;;;21.00;17.75;;;;;-143.90;100.00;76208.13;4932593;28;101851;-76
2023/12/10 05:31:28;;;;;;;;;51.50;46.50;;;;;-143.90;100.00;76208.13;4930562;28;103456;-76
2023/12/10 05:33:54;;;;;;;;;57.00;44.33;;;;;-143.90;100.00;76201.91;4929437;28;103147;-76
2023/12/10 05:36:21;;;;;;;;;50.33;39.00;;;;;-143.90;100.00;76199.84;4932341;28;101878;-75
2023/12/10 05:38:48;;;;;;;;;47.00;32.00;;;;;-143.90;100.00;76199.84;4931726;28;102014;-77
2023/12/10 05:41:14;;;;;;;;;36.00;33.67;;;;;-143.90;100.00;76191.56;4927983;28;103447;-75
2023/12/10 05:43:41;;;;;;;;;31.00;26.67;;;;;-143.90;100.00;76187.44;4933044;28;101976;-76
2023/12/10 05:46:08;;;;;;;;;26.00;22.00;;;;;-143.90;100.00;76177.09;4928811;28;101521;-76
2023/12/10 05:48:35;;;;;;;;;27.33;21.00;;;;;-143.90;100.00;76183.31;4933476;28;101730;-77
2023/12/10 05:51:03;;;;;;;;;21.00;19.67;;;;;-143.90;100.00;76187.44;4928568;28;103346;-76
2023/12/10 05:53:30;;;;;;;;;17.00;14.33;;;;;-143.90;100.00;76175.03;4928121;28;101902;-76
2023/12/10 05:55:56;;;;;;;;;61.25;47.25;;;;;-143.90;100.00;76203.97;4929894;28;101884;-76
2023/12/10 05:58:26;;;;;;;;;71.00;50.50;;;;;-143.90;100.00;76206.06;4933382;28;101880;-76
2023/12/10 06:00:53;;;;;;;;;47.67;39.00;;;;;-143.90;100.00;76189.50;4927678;28;103508;-75
2023/12/10 06:03:20;;;;;;;;;45.67;36.33;;;;;-143.90;100.00;76199.84;4930054;28;102200;-76
2023/12/10 06:05:47;;;;;;;;;39.33;29.67;;;;;-143.90;100.00;76191.56;4931002;28;101681;-76
2023/12/10 06:08:13;;;;;;;;;36.00;31.67;;;;;-143.90;100.00;76197.78;4934702;28;102034;-76
2023/12/10 06:10:40;;;;;;;;;37.67;29.33;;;;;-143.90;100.00;76206.06;4928111;28;108120;-75
2023/12/10 06:13:07;;;;;;;;;45.33;31.33;;;;;-143.90;100.00;76197.78;4926620;28;102886;-75
2023/12/10 06:15:33;;;;;;;;;32.67;24.33;;;;;-143.90;100.00;76195.72;4929041;28;102240;-75
2023/12/10 06:18:00;;;;;;;;;32.33;29.00;;;;;-143.90;100.00;76195.72;4930094;28;102763;-75
2023/12/10 06:20:27;;;;;;;;;32.00;29.33;;;;;-143.90;100.00;76199.84;4925879;28;103311;-75
2023/12/10 06:22:53;;;;;;;;;34.67;30.67;;;;;-143.90;100.00;76201.91;4921906;28;102649;-75
2023/12/10 06:25:20;;;;;;;;;36.33;29.33;;;;;-143.90;100.00;76206.06;4927075;28;102476;-74
2023/12/10 06:27:46;;;;;;;;;25.00;22.33;;;;;-143.90;100.00;76199.84;4927800;28;101934;-73
2023/12/10 06:30:13;;;;;;;;;19.00;16.33;;;;;-143.90;100.00;76193.66;4930516;28;103745;-75
2023/12/10 06:32:41;;;;;;;;;31.00;24.33;;;;;-143.90;100.00;76195.72;4929358;28;101791;-75
2023/12/10 06:35:08;;;;;;;;;20.33;14.67;;;;;-143.90;100.00;76197.78;4929771;28;102035;-75
2023/12/10 06:37:37;;;;;;;;;22.00;16.33;;;;;-143.90;100.00;76197.78;4928538;28;102113;-75
2023/12/10 06:40:05;;;;;;;;;17.67;12.00;;;;;-143.90;100.00;76197.78;4927552;28;103506;-75
2023/12/10 06:42:33;;;;;;;;;17.67;15.67;;;;;-143.90;100.00;76195.72;4921838;28;102677;-76
2023/12/10 06:45:00;;;;;;;;;20.00;13.33;;;;;-143.90;100.00;76193.66;4928770;28;102768;-75
2023/12/10 06:47:27;;;;;;;;;12.00;11.33;;;;;-143.90;100.00;76181.25;4925022;28;102027;-75
2023/12/10 06:49:55;;;;;;;;;16.00;14.67;;;;;-143.90;100.00;76183.31;4929787;28;103378;-76
2023/12/10 06:52:21;;;;;;;;;20.67;18.00;;;;;-143.90;100.00;76185.38;4926444;28;102102;-75
2023/12/10 06:54:48;;;;;;;;;7.00;5.00;;;;;-143.90;100.00;76189.50;4930946;28;101565;-75
2023/12/10 06:57:14;;;;;;;;;12.33;12.33;;;;;-143.90;100.00;76183.31;4932653;28;101625;-73
2023/12/10 06:59:41;;;;;;;;;8.00;8.00;;;;;-143.90;100.00;76181.25;4926881;28;107893;-75
2023/12/10 07:02:09;;;;;;;;;8.00;8.00;;;;;-143.90;100.00;76179.16;4930906;28;101823;-76
2023/12/10 07:04:36;;;;;;;;;11.67;10.33;;;;;-143.90;100.00;76179.16;4930821;28;101659;-76
2023/12/10 07:07:03;;;;;;;;;10.67;8.67;;;;;-143.90;100.00;76172.97;4930226;28;101957;-76
2023/12/10 07:09:29;;;;;;;;;9.33;8.00;;;;;-143.90;100.00;76168.81;4945569;28;104054;-76
2023/12/10 07:11:56;;;;;;;;;10.33;10.00;;;;;-143.90;100.00;76166.75;4931736;28;101884;-76
2023/12/10 07:14:23;;;;;;;;;8.67;8.00;;;;;-143.90;100.00;76156.41;4928644;28;101998;-76
2023/12/10 07:16:49;;;;;;;;;20.67;11.00;;;;;-143.90;100.00;76156.41;4928921;28;101630;-76
2023/12/10 07:19:16;;;;;;;;;19.67;14.67;;;;;-143.90;100.00;76150.22;4930642;28;103377;-76
2023/12/10 07:21:43;;;;;;;;;20.00;17.33;;;;;-143.90;100.00;76146.09;4932884;28;101800;-76
2023/12/10 07:24:09;;;;;;;;;22.33;17.67;;;;;-143.90;100.00;76135.75;4928994;28;102814;-76
2023/12/10 07:26:36;;;;;;;;;19.33;11.67;;;;;-143.90;100.00;76127.47;4932378;28;101638;-77
2023/12/10 07:29:03;;;;;;;;;19.67;15.67;;;;;-143.90;100.00;76121.28;4930716;28;103486;-77
2023/12/10 07:31:30;;;;;;;;;18.00;11.33;;;;;-143.90;100.00;76115.06;4927174;28;101897;-76
2023/12/10 07:33:56;;;;;;;;;18.33;13.67;;;;;-143.90;100.00;76104.72;4928431;28;102617;-76
2023/12/10 07:36:23;;;;;;;;;25.67;21.33;;;;;-143.90;100.00;76102.66;4930391;28;102934;-76
2023/12/10 07:38:50;;;;;;;;;27.00;21.00;;;;;-143.90;100.00;76096.44;4928063;28;103444;-76
2023/12/10 07:41:16;;;;;;;;;28.00;21.33;;;;;-143.90;100.00;76086.13;4930635;28;101902;-76
2023/12/10 07:43:43;;;;;;;;;17.67;14.67;;;;;-143.90;100.00;76084.03;4932171;28;101820;-76
2023/12/10 07:46:10;;;;;;;;;30.33;25.00;;;;;-143.90;100.00;76077.84;4926899;28;101671;-77
2023/12/10 07:48:36;;;;;;;;;25.67;24.00;;;;;-143.90;100.00;76073.72;4918318;28;103355;-76
2023/12/10 07:51:03;;;;;;;;;23.67;20.67;;;;;-143.90;100.00;76069.56;4913979;28;102355;-77
2023/12/10 07:53:30;;;;;;;;;23.67;16.33;;;;;-143.90;100.00;76065.44;4917300;28;102336;-76
2023/12/10 07:55:56;;;;;;;;;24.33;21.33;;;;;-143.90;100.00;76061.31;4930344;28;101887;-76
2023/12/10 07:58:23;;;;;;;;;28.00;20.67;;;;;-143.90;100.00;76055.09;4929950;28;103639;-76
2023/12/10 08:00:49;;;;;;;;;23.33;18.67;;;;;-143.90;100.00;76048.88;4927943;28;102606;-77
2023/12/10 08:03:16;;;;;;;;;19.67;16.00;;;;;-143.90;100.00;76042.69;4930059;28;101708;-76
2023/12/10 08:05:43;;;;;;;;;16.00;14.67;;;;;-143.90;100.00;76044.75;4932405;28;101973;-77
2023/12/10 08:08:12;;;;;;;;;18.33;16.33;;;;;-143.90;100.00;76044.75;4942566;28;109147;-77
2023/12/10 08:10:39;;;;;;;;;15.00;13.33;;;;;-143.90;100.00;76044.75;4928070;28;102047;-77
2023/12/10 08:13:06;;;;;;;;;11.00;9.00;;;;;-143.90;100.00;76036.47;4933045;28;101690;-77
2023/12/10 08:15:33;;;;;;;;;17.33;15.67;;;;;-143.90;100.00;76036.47;4932327;28;101789;-77
2023/12/10 08:17:59;;;;;;;;;12.67;12.00;;;;;-143.90;100.00;76028.22;4932329;28;103413;-78
2023/12/10 08:20:26;;;;;;;;;16.00;13.00;;;;;-143.90;100.00;76024.06;4929581;28;103246;-77
2023/12/10 08:22:53;;;;;;;;;16.67;14.33;;;;;-143.90;100.00;76019.94;4858511;28;103375;-77
2023/12/10 08:25:19;;;;;;;;;21.67;14.33;;;;;-143.90;100.00;76013.75;4859609;28;103791;-77
2023/12/10 08:27:46;;;;;;;;;15.67;12.00;;;;;-143.90;100.00;76007.53;4856237;28;104320;-74
2023/12/10 08:30:13;;;;;;;;;15.00;9.00;;;;;-143.90;100.00;76001.34;4860405;28;103607;-77
2023/12/10 08:32:40;;;;;;;;;11.00;9.00;;;;;-143.90;100.00;75988.94;4910625;28;103144;-76
2023/12/10 08:35:07;;;;;;;;;13.33;12.00;;;;;-143.90;100.00;75980.66;4877162;28;104263;-76
2023/12/10 08:37:33;;;;;;;;;16.67;16.67;;;;;-143.90;100.00;75962.03;4856958;28;104768;-76
2023/12/10 08:40:05;;;;;;;;;15.00;12.00;;;;;-143.90;100.00;75953.78;4896222;28;103385;-75
2023/12/10 08:42:31;;;;;;;;;23.33;19.33;;;;;-143.90;100.00;75959.97;4890124;28;103480;-74
2023/12/10 08:44:59;;;;;;;;;25.00;20.67;;;;;-143.90;100.00;75962.03;4858235;28;104248;-74
2023/12/10 08:47:25;;;;;;;;;26.33;23.00;;;;;-143.90;100.00;75966.19;4878754;28;104842;-74
2023/12/10 08:49:52;;;;;;;;;34.00;27.33;;;;;-143.90;100.00;75966.19;4866927;28;103221;-74
2023/12/10 08:52:19;;;;;;;;;23.67;19.67;;;;;-143.90;100.00;75962.03;4857855;28;103256;-77
2023/12/10 08:54:45;;;;;;;;;24.00;19.67;;;;;-143.90;100.00;75953.78;4877266;28;103451;-77
2023/12/10 08:57:13;;;;;;;;;21.67;19.33;;;;;-143.90;100.00;75949.63;4877152;28;109879;-76
2023/12/10 08:59:40;;;;;;;;;26.67;24.67;;;;;-143.90;100.00;75955.84;4889354;28;103270;-78
2023/12/10 09:02:06;;;;;;;;;26.00;22.33;;;;;-143.90;100.00;75947.56;4911793;28;104141;-75
2023/12/10 09:04:33;;;;;;;;;25.67;20.00;;;;;-143.90;100.00;75941.38;4879018;28;103299;-75
2023/12/10 09:07:00;;;;;;;;;43.67;35.33;;;;;-143.90;100.00;75953.78;4884674;28;108414;-76
2023/12/10 09:09:28;;;;;;;;;51.67;45.00;;;;;-143.90;100.00;75955.84;4872649;28;103393;-75
2023/12/10 09:11:55;;;;;;;;;48.33;41.67;;;;;-143.90;100.00;75957.91;4854254;28;103472;-75
2023/12/10 09:14:21;;;;;;;;;39.33;36.00;;;;;-143.90;100.00;75945.50;4894462;28;103132;-76
2023/12/10 09:16:48;;;;;;;;;11.33;5.33;;;;;-143.90;100.00;75945.50;4878681;28;104544;-76
2023/12/10 09:19:16;;;;;;;;;34.00;29.67;;;;;-143.90;100.00;75939.28;4857994;28;103684;-76
2023/12/10 09:21:45;;;;;;;;;41.67;34.33;;;;;-143.90;100.00;75937.22;4858557;28;103619;-78
2023/12/10 09:24:12;;;;;;;;;33.33;28.00;;;;;-143.90;100.00;75924.81;4859736;28;103930;-77
2023/12/10 09:26:39;;;;;;;;;31.00;23.33;;;;;-143.90;100.00;75924.81;4887615;28;104423;-75
2023/12/10 09:29:05;;;;;;;;;28.33;22.00;;;;;-143.90;100.00;75916.56;4899788;28;103824;-75
2023/12/10 09:31:32;;;;;;;;;30.67;28.33;;;;;-143.90;100.00;75908.28;4884830;28;103212;-78
2023/12/10 09:33:59;;;;;;;;;31.67;28.33;;;;;-143.90;100.00;75895.88;4858108;28;103587;-76
2023/12/10 09:36:25;;;;;;;;;35.33;28.33;;;;;-143.90;100.00;75893.81;4856568;28;104112;-76
2023/12/10 09:38:52;;;;;;;;;36.67;28.00;;;;;-143.90;100.00;75883.47;4873742;28;103543;-75
2023/12/10 09:41:19;;;;;;;;;32.00;21.33;;;;;-143.90;100.00;75869.00;4857945;28;103755;-80
2023/12/10 09:43:46;;;;;;;;;36.00;30.00;;;;;-143.90;100.00;75871.06;4859899;28;103473;-77
2023/12/10 09:46:13;;;;;;;;;34.33;30.00;;;;;-143.90;100.00;75883.47;4859137;28;103462;-77
2023/12/10 09:48:41;;;;;;;;;37.33;31.00;;;;;-143.90;100.00;75875.19;4858854;28;103480;-78
2023/12/10 09:51:08;;;;;;;;;31.00;26.67;;;;;-143.90;100.00;75862.78;4868966;28;103462;-78
2023/12/10 09:53:35;;;;;;;;;35.67;28.00;;;;;-143.90;100.00;75862.78;4860547;28;107160;-78
2023/12/10 09:56:02;;;;;;;;;33.00;30.00;;;;;-143.90;100.00;75862.78;4858627;28;103977;-77
2023/12/10 09:58:29;;;;;;;;;27.50;25.25;;;;;-143.90;100.00;75850.38;4859171;28;103493;-77
2023/12/10 10:00:56;;;;;;;;;30.00;21.00;;;;;-143.90;100.00;75854.53;4872456;28;103286;-78
2023/12/10 10:03:23;;;;;;;;;24.67;19.33;;;;;-143.90;100.00;75858.66;4858689;28;103664;-76
2023/12/10 10:05:50;;;;;;;;;21.33;17.67;;;;;-143.90;100.00;75860.72;4916036;28;106695;-78
2023/12/10 10:08:17;;;;;;;;;21.67;17.00;;;;;-143.90;100.00;75862.78;4928777;28;102390;-75
2023/12/10 10:10:43;;;;;;;;;21.67;17.67;;;;;-143.90;100.00;75862.78;4925118;28;102223;-78
2023/12/10 10:13:10;;;;;;;;;28.33;23.33;;;;;-143.90;100.00;75858.66;4930170;28;101878;-77
2023/12/10 10:15:37;;;;;;;;;22.33;18.67;;;;;-143.90;100.00;75850.38;4928692;28;103567;-78
2023/12/10 10:18:05;;;;;;;;;24.00;21.00;;;;;-143.90;100.00;75850.38;4930589;28;102953;-77
2023/12/10 10:20:32;;;;;;;;;21.25;16.25;;;;;-143.90;100.00;75840.03;4930271;28;102142;-79
2023/12/10 10:22:58;;;;;;;;;22.67;14.67;;;;;-143.90;100.00;75840.03;4929047;28;101943;-76
2023/12/10 10:25:25;;;;;;;;;28.33;23.67;;;;;-143.90;100.00;75842.13;4932375;28;103332;-76
2023/12/10 10:27:52;;;;;;;;;34.67;29.00;;;;;-143.90;100.00;75848.31;4927432;28;101969;-76
2023/12/10 10:30:18;;;;;;;;;42.67;35.33;;;;;-143.90;100.00;75850.38;4928037;28;102718;-76
2023/12/10 10:32:46;;;;;;;;;44.67;25.00;;;;;-143.90;100.00;75827.63;4928452;28;102212;-77
2023/12/10 10:35:13;;;;;;;;;31.33;24.67;;;;;-143.90;100.00;75821.44;4926651;28;103291;-77
2023/12/10 10:37:42;;;;;;;;;39.00;31.33;;;;;-143.90;100.00;75817.31;4928242;28;101676;-77
2023/12/10 10:40:09;;;;;;;;;26.33;24.00;;;;;-143.90;100.00;75804.91;4929477;28;101647;-77
2023/12/10 10:42:36;;;;;;;;;29.33;24.00;;;;;-143.90;100.00;75794.56;4924131;28;101795;-77
2023/12/10 10:45:04;;;;;;;;;37.00;26.33;;;;;-143.90;100.00;75800.75;4927246;28;103534;-76
2023/12/10 10:47:33;;;;;;;;;38.00;28.00;;;;;-143.90;100.00;75798.69;4923187;28;102407;-76